sensor_id;sensor_type;location;lat;lon;timestamp;pressure;altitude;pressure_sealevel;temperature;humidity
80837;BME280;70251;60.008;30.404;2024-01-11T00:00:14;99417.00;;;3.15;76.99
80837;BME280;70251;60.008;30.404;2024-01-11T00:02:40;99411.13;;;3.23;76.44
80837;BME280;70251;60.008;30.404;2024-01-11T00:05:06;99404.31;;;3.21;76.29
80837;BME280;70251;60.008;30.404;2024-01-11T00:07:32;99405.59;;;3.26;76.21
80837;BME280;70251;60.008;30.404;2024-01-11T00:09:57;99402.59;;;3.31;76.38
80837;BME280;70251;60.008;30.404;2024-01-11T00:12:23;99409.44;;;3.33;75.78
80837;BME280;70251;60.008;30.404;2024-01-11T00:14:49;99431.25;;;3.24;76.33
80837;BME280;70251;60.008;30.404;2024-01-11T00:17:15;99426.22;;;3.21;76.16
80837;BME280;70251;60.008;30.404;2024-01-11T00:19:41;99417.69;;;3.17;76.37
80837;BME280;70251;60.008;30.404;2024-01-11T00:22:06;99425.16;;;3.24;75.85
80837;BME280;70251;60.008;30.404;2024-01-11T00:24:32;99421.44;;;3.15;76.17
80837;BME280;70251;60.008;30.404;2024-01-11T00:26:58;99419.28;;;3.20;76.17
80837;BME280;70251;60.008;30.404;2024-01-11T00:29:24;99416.41;;;3.23;76.24
80837;BME280;70251;60.008;30.404;2024-01-11T00:31:49;99413.50;;;3.26;75.71
80837;BME280;70251;60.008;30.404;2024-01-11T00:34:15;99414.63;;;3.24;75.97
80837;BME280;70251;60.008;30.404;2024-01-11T00:36:40;99414.63;;;3.24;76.16
80837;BME280;70251;60.008;30.404;2024-01-11T00:39:06;99419.75;;;3.25;76.16
80837;BME280;70251;60.008;30.404;2024-01-11T00:41:32;99413.50;;;3.26;76.29
80837;BME280;70251;60.008;30.404;2024-01-11T00:43:57;99417.13;;;3.25;75.49
80837;BME280;70251;60.008;30.404;2024-01-11T00:46:23;99417.97;;;3.26;75.80
80837;BME280;70251;60.008;30.404;2024-01-11T00:48:49;99410.28;;;3.23;76.06
80837;BME280;70251;60.008;30.404;2024-01-11T00:51:15;99415.91;;;3.18;75.87
80837;BME280;70251;60.008;30.404;2024-01-11T00:53:41;99420.69;;;3.24;75.51
80837;BME280;70251;60.008;30.404;2024-01-11T00:56:18;99420.97;;;3.32;75.38
80837;BME280;70251;60.008;30.404;2024-01-11T00:58:43;99419.13;;;3.33;75.22
80837;BME280;70251;60.008;30.404;2024-01-11T01:01:09;99425.03;;;3.36;75.22
80837;BME280;70251;60.008;30.404;2024-01-11T01:03:35;99431.25;;;3.35;74.92
80837;BME280;70251;60.008;30.404;2024-01-11T01:06:01;99435.44;;;3.38;74.90
80837;BME280;70251;60.008;30.404;2024-01-11T01:08:27;99427.19;;;3.31;74.54
80837;BME280;70251;60.008;30.404;2024-01-11T01:10:53;99431.38;;;3.34;74.10
80837;BME280;70251;60.008;30.404;2024-01-11T01:13:19;99433.66;;;3.38;74.41
80837;BME280;70251;60.008;30.404;2024-01-11T01:15:44;99433.16;;;3.44;74.39
80837;BME280;70251;60.008;30.404;2024-01-11T01:18:10;99443.69;;;3.44;74.54
80837;BME280;70251;60.008;30.404;2024-01-11T01:20:36;99451.00;;;3.52;73.76
80837;BME280;70251;60.008;30.404;2024-01-11T01:23:02;99463.81;;;3.45;73.12
80837;BME280;70251;60.008;30.404;2024-01-11T01:25:28;99454.97;;;3.35;73.24
80837;BME280;70251;60.008;30.404;2024-01-11T01:27:54;99470.06;;;3.44;73.09
80837;BME280;70251;60.008;30.404;2024-01-11T01:30:20;99457.09;;;3.52;72.80
80837;BME280;70251;60.008;30.404;2024-01-11T01:32:46;99453.75;;;3.50;71.98
80837;BME280;70251;60.008;30.404;2024-01-11T01:35:11;99453.97;;;3.47;72.12
80837;BME280;70251;60.008;30.404;2024-01-11T01:37:37;99457.47;;;3.59;71.44
80837;BME280;70251;60.008;30.404;2024-01-11T01:40:03;99454.34;;;3.54;71.64
80837;BME280;70251;60.008;30.404;2024-01-11T01:42:29;99458.94;;;3.41;71.38
80837;BME280;70251;60.008;30.404;2024-01-11T01:44:55;99474.97;;;3.38;71.08
80837;BME280;70251;60.008;30.404;2024-01-11T01:47:21;99467.78;;;3.40;71.57
80837;BME280;70251;60.008;30.404;2024-01-11T01:49:48;99521.09;;;3.54;71.21
80837;BME280;70251;60.008;30.404;2024-01-11T01:52:15;99527.06;;;3.45;71.23
80837;BME280;70251;60.008;30.404;2024-01-11T01:54:42;99526.72;;;3.39;71.88
80837;BME280;70251;60.008;30.404;2024-01-11T01:57:09;99522.53;;;3.36;71.97
80837;BME280;70251;60.008;30.404;2024-01-11T01:59:36;99529.00;;;3.32;72.16
80837;BME280;70251;60.008;30.404;2024-01-11T02:02:04;99545.03;;;3.29;72.39
80837;BME280;70251;60.008;30.404;2024-01-11T02:04:31;99546.13;;;3.27;72.24
80837;BME280;70251;60.008;30.404;2024-01-11T02:06:57;99552.44;;;3.24;72.06
80837;BME280;70251;60.008;30.404;2024-01-11T02:09:24;99566.22;;;3.17;71.90
80837;BME280;70251;60.008;30.404;2024-01-11T02:11:51;99581.44;;;3.13;72.10
80837;BME280;70251;60.008;30.404;2024-01-11T02:14:18;99573.63;;;3.11;71.33
80837;BME280;70251;60.008;30.404;2024-01-11T02:16:45;99587.53;;;3.13;71.02
80837;BME280;70251;60.008;30.404;2024-01-11T02:19:17;99588.38;;;3.14;71.08
80837;BME280;70251;60.008;30.404;2024-01-11T02:21:46;99600.47;;;3.17;70.70
80837;BME280;70251;60.008;30.404;2024-01-11T02:24:14;99622.63;;;3.14;70.62
80837;BME280;70251;60.008;30.404;2024-01-11T02:29:25;99615.41;;;3.05;70.11
80837;BME280;70251;60.008;30.404;2024-01-11T02:31:51;99628.69;;;3.03;70.14
80837;BME280;70251;60.008;30.404;2024-01-11T02:34:17;99638.50;;;3.01;69.59
80837;BME280;70251;60.008;30.404;2024-01-11T02:36:43;99632.13;;;2.93;69.58
80837;BME280;70251;60.008;30.404;2024-01-11T02:39:09;99645.41;;;2.91;69.50
80837;BME280;70251;60.008;30.404;2024-01-11T02:41:37;99635.94;;;2.89;69.57
80837;BME280;70251;60.008;30.404;2024-01-11T02:44:03;99657.00;;;2.89;69.37
80837;BME280;70251;60.008;30.404;2024-01-11T02:46:29;99653.84;;;2.84;68.92
80837;BME280;70251;60.008;30.404;2024-01-11T02:48:55;99661.28;;;2.79;68.76
80837;BME280;70251;60.008;30.404;2024-01-11T02:51:21;99673.81;;;2.75;69.22
80837;BME280;70251;60.008;30.404;2024-01-11T02:53:46;99667.69;;;2.75;68.65
80837;BME280;70251;60.008;30.404;2024-01-11T02:56:12;99670.78;;;2.69;69.09
80837;BME280;70251;60.008;30.404;2024-01-11T02:58:37;99693.97;;;2.64;68.78
80837;BME280;70251;60.008;30.404;2024-01-11T03:01:03;99689.75;;;2.61;68.31
80837;BME280;70251;60.008;30.404;2024-01-11T03:03:29;99721.78;;;2.55;68.38
80837;BME280;70251;60.008;30.404;2024-01-11T03:05:54;99713.38;;;2.50;68.35
80837;BME280;70251;60.008;30.404;2024-01-11T03:08:21;99707.16;;;2.38;68.14
80837;BME280;70251;60.008;30.404;2024-01-11T03:10:47;99724.34;;;2.31;67.97
80837;BME280;70251;60.008;30.404;2024-01-11T03:13:13;99729.31;;;2.23;67.74
80837;BME280;70251;60.008;30.404;2024-01-11T03:15:38;99740.47;;;2.14;67.59
80837;BME280;70251;60.008;30.404;2024-01-11T03:18:04;99729.72;;;2.05;67.30
80837;BME280;70251;60.008;30.404;2024-01-11T03:20:30;99741.63;;;1.98;67.20
80837;BME280;70251;60.008;30.404;2024-01-11T03:22:55;99750.03;;;1.90;66.76
80837;BME280;70251;60.008;30.404;2024-01-11T03:25:21;99740.53;;;1.75;66.43
80837;BME280;70251;60.008;30.404;2024-01-11T03:27:46;99755.56;;;1.61;66.55
80837;BME280;70251;60.008;30.404;2024-01-11T03:30:12;99778.47;;;1.58;66.96
80837;BME280;70251;60.008;30.404;2024-01-11T03:32:38;99761.13;;;1.56;66.48
80837;BME280;70251;60.008;30.404;2024-01-11T03:35:08;99767.22;;;1.56;66.41
80837;BME280;70251;60.008;30.404;2024-01-11T03:37:34;99781.50;;;1.52;66.13
80837;BME280;70251;60.008;30.404;2024-01-11T03:40:01;99776.56;;;1.48;66.42
80837;BME280;70251;60.008;30.404;2024-01-11T03:42:26;99772.13;;;1.36;65.64
80837;BME280;70251;60.008;30.404;2024-01-11T03:44:52;99782.47;;;1.25;65.82
80837;BME280;70251;60.008;30.404;2024-01-11T03:47:17;99795.88;;;1.20;65.57
80837;BME280;70251;60.008;30.404;2024-01-11T03:49:43;99805.66;;;1.18;65.11
80837;BME280;70251;60.008;30.404;2024-01-11T03:52:09;99794.59;;;1.13;64.92
80837;BME280;70251;60.008;30.404;2024-01-11T03:54:35;99828.28;;;1.07;65.23
80837;BME280;70251;60.008;30.404;2024-01-11T03:57:00;99817.88;;;1.05;65.28
80837;BME280;70251;60.008;30.404;2024-01-11T03:59:26;99820.03;;;0.99;64.79
80837;BME280;70251;60.008;30.404;2024-01-11T04:01:51;99813.94;;;0.98;64.65
80837;BME280;70251;60.008;30.404;2024-01-11T04:04:18;99850.16;;;0.93;65.04
80837;BME280;70251;60.008;30.404;2024-01-11T04:06:44;99842.34;;;0.92;64.43
80837;BME280;70251;60.008;30.404;2024-01-11T04:09:10;99857.69;;;0.85;64.29
80837;BME280;70251;60.008;30.404;2024-01-11T04:11:36;99849.88;;;0.84;64.52
80837;BME280;70251;60.008;30.404;2024-01-11T04:14:01;99855.88;;;0.86;64.83
80837;BME280;70251;60.008;30.404;2024-01-11T04:16:27;99879.72;;;0.83;64.95
80837;BME280;70251;60.008;30.404;2024-01-11T04:18:53;99878.00;;;0.82;64.47
80837;BME280;70251;60.008;30.404;2024-01-11T04:21:26;99905.75;;;0.86;65.03
80837;BME280;70251;60.008;30.404;2024-01-11T04:24:00;99902.59;;;0.81;64.00
80837;BME280;70251;60.008;30.404;2024-01-11T04:26:34;99908.28;;;0.73;64.63
80837;BME280;70251;60.008;30.404;2024-01-11T04:29:00;99909.50;;;0.67;64.02
80837;BME280;70251;60.008;30.404;2024-01-11T04:31:26;99904.34;;;0.66;64.45
80837;BME280;70251;60.008;30.404;2024-01-11T04:33:52;99914.00;;;0.65;64.15
80837;BME280;70251;60.008;30.404;2024-01-11T04:36:17;99923.91;;;0.60;64.10
80837;BME280;70251;60.008;30.404;2024-01-11T04:38:43;99940.69;;;0.58;64.32
80837;BME280;70251;60.008;30.404;2024-01-11T04:41:13;99945.13;;;0.57;63.30
80837;BME280;70251;60.008;30.404;2024-01-11T04:43:43;99945.75;;;0.47;63.38
80837;BME280;70251;60.008;30.404;2024-01-11T04:46:22;99946.28;;;0.38;62.10
80837;BME280;70251;60.008;30.404;2024-01-11T04:48:48;99953.66;;;0.31;62.82
80837;BME280;70251;60.008;30.404;2024-01-11T04:51:16;99970.25;;;0.32;63.14
80837;BME280;70251;60.008;30.404;2024-01-11T04:53:43;99984.03;;;0.35;62.89
80837;BME280;70251;60.008;30.404;2024-01-11T04:56:10;99985.78;;;0.35;63.09
80837;BME280;70251;60.008;30.404;2024-01-11T04:58:38;99985.28;;;0.28;62.74
80837;BME280;70251;60.008;30.404;2024-01-11T05:01:05;99998.75;;;0.22;62.76
80837;BME280;70251;60.008;30.404;2024-01-11T05:03:31;99982.63;;;0.14;62.92
80837;BME280;70251;60.008;30.404;2024-01-11T05:05:58;99997.97;;;0.06;62.19
80837;BME280;70251;60.008;30.404;2024-01-11T05:08:25;100002.00;;;-0.04;62.06
80837;BME280;70251;60.008;30.404;2024-01-11T05:10:51;100012.78;;;-0.09;61.94
80837;BME280;70251;60.008;30.404;2024-01-11T05:13:17;100011.31;;;-0.14;62.32
80837;BME280;70251;60.008;30.404;2024-01-11T05:15:43;100018.31;;;-0.15;62.19
80837;BME280;70251;60.008;30.404;2024-01-11T05:18:09;100032.47;;;-0.17;62.27
80837;BME280;70251;60.008;30.404;2024-01-11T05:20:36;100020.97;;;-0.30;62.20
80837;BME280;70251;60.008;30.404;2024-01-11T05:23:02;100032.69;;;-0.37;62.36
80837;BME280;70251;60.008;30.404;2024-01-11T05:25:29;100040.81;;;-0.42;63.28
80837;BME280;70251;60.008;30.404;2024-01-11T05:28:03;100044.09;;;-0.38;62.90
80837;BME280;70251;60.008;30.404;2024-01-11T05:30:29;100051.38;;;-0.43;62.79
80837;BME280;70251;60.008;30.404;2024-01-11T05:32:55;100062.19;;;-0.49;63.63
80837;BME280;70251;60.008;30.404;2024-01-11T05:35:22;100075.91;;;-0.61;63.64
80837;BME280;70251;60.008;30.404;2024-01-11T05:37:50;100086.56;;;-0.64;63.72
80837;BME280;70251;60.008;30.404;2024-01-11T05:40:16;100085.09;;;-0.70;64.54
80837;BME280;70251;60.008;30.404;2024-01-11T05:42:41;100084.25;;;-0.70;64.97
80837;BME280;70251;60.008;30.404;2024-01-11T05:45:07;100090.66;;;-0.76;64.16
80837;BME280;70251;60.008;30.404;2024-01-11T05:47:33;100108.38;;;-0.81;64.52
80837;BME280;70251;60.008;30.404;2024-01-11T05:49:58;100102.44;;;-0.85;64.51
80837;BME280;70251;60.008;30.404;2024-01-11T05:52:24;100099.91;;;-0.86;64.14
80837;BME280;70251;60.008;30.404;2024-01-11T05:54:50;100110.19;;;-0.83;64.26
80837;BME280;70251;60.008;30.404;2024-01-11T05:57:15;100101.66;;;-0.87;64.51
80837;BME280;70251;60.008;30.404;2024-01-11T05:59:44;100115.53;;;-0.85;63.92
80837;BME280;70251;60.008;30.404;2024-01-11T06:02:11;100124.22;;;-0.84;63.89
80837;BME280;70251;60.008;30.404;2024-01-11T06:04:37;100119.69;;;-0.81;64.40
80837;BME280;70251;60.008;30.404;2024-01-11T06:07:03;100137.84;;;-0.77;63.59
80837;BME280;70251;60.008;30.404;2024-01-11T06:09:28;100153.13;;;-0.86;63.76
80837;BME280;70251;60.008;30.404;2024-01-11T06:11:54;100150.94;;;-0.95;63.36
80837;BME280;70251;60.008;30.404;2024-01-11T06:14:20;100169.72;;;-1.04;63.01
80837;BME280;70251;60.008;30.404;2024-01-11T06:16:45;100177.47;;;-1.02;63.43
80837;BME280;70251;60.008;30.404;2024-01-11T06:19:11;100193.91;;;-0.99;63.40
80837;BME280;70251;60.008;30.404;2024-01-11T06:21:36;100194.97;;;-1.03;62.70
80837;BME280;70251;60.008;30.404;2024-01-11T06:24:02;100179.84;;;-1.15;62.70
80837;BME280;70251;60.008;30.404;2024-01-11T06:26:29;100202.03;;;-1.22;62.71
80837;BME280;70251;60.008;30.404;2024-01-11T06:28:55;100199.47;;;-1.23;62.59
80837;BME280;70251;60.008;30.404;2024-01-11T06:31:21;100220.63;;;-1.28;62.85
80837;BME280;70251;60.008;30.404;2024-01-11T06:33:47;100233.78;;;-1.29;62.69
80837;BME280;70251;60.008;30.404;2024-01-11T06:36:12;100238.59;;;-1.39;62.69
80837;BME280;70251;60.008;30.404;2024-01-11T06:38:38;100243.47;;;-1.50;62.97
80837;BME280;70251;60.008;30.404;2024-01-11T06:41:04;100255.06;;;-1.55;63.27
80837;BME280;70251;60.008;30.404;2024-01-11T06:43:29;100262.06;;;-1.56;63.57
80837;BME280;70251;60.008;30.404;2024-01-11T06:45:55;100262.97;;;-1.57;63.58
80837;BME280;70251;60.008;30.404;2024-01-11T06:48:21;100266.66;;;-1.61;63.06
80837;BME280;70251;60.008;30.404;2024-01-11T06:50:50;100259.09;;;-1.67;63.62
80837;BME280;70251;60.008;30.404;2024-01-11T06:53:15;100262.75;;;-1.71;63.40
80837;BME280;70251;60.008;30.404;2024-01-11T06:55:41;100273.13;;;-1.70;63.07
80837;BME280;70251;60.008;30.404;2024-01-11T06:58:09;100280.97;;;-1.70;62.81
80837;BME280;70251;60.008;30.404;2024-01-11T07:00:35;100279.22;;;-1.69;63.09
80837;BME280;70251;60.008;30.404;2024-01-11T07:03:01;100285.09;;;-1.64;63.33
80837;BME280;70251;60.008;30.404;2024-01-11T07:05:28;100292.28;;;-1.69;62.92
80837;BME280;70251;60.008;30.404;2024-01-11T07:07:54;100297.84;;;-1.77;62.77
80837;BME280;70251;60.008;30.404;2024-01-11T07:10:20;100293.75;;;-1.82;63.68
80837;BME280;70251;60.008;30.404;2024-01-11T07:12:45;100302.56;;;-1.85;64.00
80837;BME280;70251;60.008;30.404;2024-01-11T07:15:16;100306.31;;;-1.90;63.52
80837;BME280;70251;60.008;30.404;2024-01-11T07:17:44;100297.03;;;-1.97;63.99
80837;BME280;70251;60.008;30.404;2024-01-11T07:20:10;100299.00;;;-2.02;63.51
80837;BME280;70251;60.008;30.404;2024-01-11T07:22:36;100310.19;;;-1.99;64.33
80837;BME280;70251;60.008;30.404;2024-01-11T07:25:02;100321.47;;;-1.98;64.10
80837;BME280;70251;60.008;30.404;2024-01-11T07:27:35;100319.97;;;-2.04;64.78
80837;BME280;70251;60.008;30.404;2024-01-11T07:30:01;100326.16;;;-2.06;64.88
80837;BME280;70251;60.008;30.404;2024-01-11T07:32:30;100324.56;;;-2.09;64.41
80837;BME280;70251;60.008;30.404;2024-01-11T07:34:56;100331.81;;;-2.15;64.07
80837;BME280;70251;60.008;30.404;2024-01-11T07:37:21;100338.00;;;-2.18;64.49
80837;BME280;70251;60.008;30.404;2024-01-11T07:39:47;100344.44;;;-2.26;64.16
80837;BME280;70251;60.008;30.404;2024-01-11T07:42:14;100343.78;;;-2.31;64.27
80837;BME280;70251;60.008;30.404;2024-01-11T07:44:39;100338.03;;;-2.40;64.16
80837;BME280;70251;60.008;30.404;2024-01-11T07:47:05;100340.53;;;-2.37;64.64
80837;BME280;70251;60.008;30.404;2024-01-11T07:49:31;100345.75;;;-2.37;64.27
80837;BME280;70251;60.008;30.404;2024-01-11T07:51:57;100353.19;;;-2.27;64.14
80837;BME280;70251;60.008;30.404;2024-01-11T07:54:22;100353.94;;;-2.24;63.84
80837;BME280;70251;60.008;30.404;2024-01-11T07:56:48;100358.38;;;-2.26;63.76
80837;BME280;70251;60.008;30.404;2024-01-11T07:59:13;100358.59;;;-2.32;63.66
80837;BME280;70251;60.008;30.404;2024-01-11T08:01:40;100379.31;;;-2.27;64.08
80837;BME280;70251;60.008;30.404;2024-01-11T08:04:05;100375.19;;;-2.33;63.76
80837;BME280;70251;60.008;30.404;2024-01-11T08:06:31;100353.53;;;-2.57;63.56
80837;BME280;70251;60.008;30.404;2024-01-11T08:09:33;100377.56;;;-2.49;63.89
80837;BME280;70251;60.008;30.404;2024-01-11T08:11:59;100378.78;;;-2.57;63.71
80837;BME280;70251;60.008;30.404;2024-01-11T08:14:25;100380.38;;;-2.75;63.65
80837;BME280;70251;60.008;30.404;2024-01-11T08:16:50;100383.56;;;-2.68;63.90
80837;BME280;70251;60.008;30.404;2024-01-11T08:19:16;100391.47;;;-2.70;63.68
80837;BME280;70251;60.008;30.404;2024-01-11T08:21:42;100392.53;;;-2.97;62.91
80837;BME280;70251;60.008;30.404;2024-01-11T08:24:08;100390.19;;;-3.04;63.10
80837;BME280;70251;60.008;30.404;2024-01-11T08:26:34;100412.56;;;-2.97;62.73
80837;BME280;70251;60.008;30.404;2024-01-11T08:29:06;100419.81;;;-3.05;63.20
80837;BME280;70251;60.008;30.404;2024-01-11T08:31:33;100395.31;;;-3.25;62.75
80837;BME280;70251;60.008;30.404;2024-01-11T08:33:58;100412.72;;;-3.25;63.18
80837;BME280;70251;60.008;30.404;2024-01-11T08:36:24;100415.28;;;-3.24;62.72
80837;BME280;70251;60.008;30.404;2024-01-11T08:38:50;100411.31;;;-3.10;63.13
80837;BME280;70251;60.008;30.404;2024-01-11T08:41:16;100413.59;;;-3.25;62.79
80837;BME280;70251;60.008;30.404;2024-01-11T08:43:42;100408.84;;;-3.13;63.07
80837;BME280;70251;60.008;30.404;2024-01-11T08:46:07;100426.13;;;-3.11;62.93
80837;BME280;70251;60.008;30.404;2024-01-11T08:48:33;100402.81;;;-3.16;62.64
80837;BME280;70251;60.008;30.404;2024-01-11T08:50:58;100436.44;;;-3.08;63.13
80837;BME280;70251;60.008;30.404;2024-01-11T08:53:24;100422.53;;;-3.08;62.66
80837;BME280;70251;60.008;30.404;2024-01-11T08:55:50;100437.00;;;-3.23;62.19
80837;BME280;70251;60.008;30.404;2024-01-11T08:58:15;100434.94;;;-3.38;61.78
80837;BME280;70251;60.008;30.404;2024-01-11T09:00:41;100429.13;;;-3.46;62.42
80837;BME280;70251;60.008;30.404;2024-01-11T09:03:06;100445.97;;;-3.55;62.60
80837;BME280;70251;60.008;30.404;2024-01-11T09:05:32;100446.00;;;-3.56;62.09
80837;BME280;70251;60.008;30.404;2024-01-11T09:07:57;100452.44;;;-3.42;62.38
80837;BME280;70251;60.008;30.404;2024-01-11T09:10:23;100448.19;;;-3.44;62.43
80837;BME280;70251;60.008;30.404;2024-01-11T09:12:49;100452.38;;;-3.40;62.58
80837;BME280;70251;60.008;30.404;2024-01-11T09:15:14;100447.06;;;-3.62;61.45
80837;BME280;70251;60.008;30.404;2024-01-11T09:17:40;100462.06;;;-3.68;62.13
80837;BME280;70251;60.008;30.404;2024-01-11T09:20:06;100456.22;;;-3.50;62.67
80837;BME280;70251;60.008;30.404;2024-01-11T09:22:31;100477.78;;;-3.45;61.68
80837;BME280;70251;60.008;30.404;2024-01-11T09:24:59;100478.59;;;-3.45;62.11
80837;BME280;70251;60.008;30.404;2024-01-11T09:27:24;100472.38;;;-3.41;62.01
80837;BME280;70251;60.008;30.404;2024-01-11T09:29:50;100494.81;;;-3.35;61.72
80837;BME280;70251;60.008;30.404;2024-01-11T09:32:15;100508.16;;;-3.70;61.58
80837;BME280;70251;60.008;30.404;2024-01-11T09:34:41;100496.47;;;-3.83;61.90
80837;BME280;70251;60.008;30.404;2024-01-11T09:37:07;100509.38;;;-3.80;62.17
80837;BME280;70251;60.008;30.404;2024-01-11T09:39:33;100509.22;;;-3.76;61.87
80837;BME280;70251;60.008;30.404;2024-01-11T09:42:07;100513.19;;;-3.64;61.71
80837;BME280;70251;60.008;30.404;2024-01-11T09:44:36;100506.88;;;-3.83;61.04
80837;BME280;70251;60.008;30.404;2024-01-11T09:47:03;100524.34;;;-3.87;61.65
80837;BME280;70251;60.008;30.404;2024-01-11T09:49:30;100538.16;;;-3.83;62.01
80837;BME280;70251;60.008;30.404;2024-01-11T09:51:57;100536.50;;;-3.87;61.98
80837;BME280;70251;60.008;30.404;2024-01-11T09:54:23;100540.91;;;-3.88;61.80
80837;BME280;70251;60.008;30.404;2024-01-11T09:56:50;100544.19;;;-3.83;62.40
80837;BME280;70251;60.008;30.404;2024-01-11T09:59:20;100530.75;;;-3.97;62.01
80837;BME280;70251;60.008;30.404;2024-01-11T10:01:49;100551.53;;;-3.94;62.09
80837;BME280;70251;60.008;30.404;2024-01-11T10:04:16;100549.38;;;-3.81;62.58
80837;BME280;70251;60.008;30.404;2024-01-11T10:06:42;100561.13;;;-3.70;61.65
80837;BME280;70251;60.008;30.404;2024-01-11T10:09:13;100542.47;;;-3.56;61.71
80837;BME280;70251;60.008;30.404;2024-01-11T10:11:39;100561.28;;;-3.74;61.46
80837;BME280;70251;60.008;30.404;2024-01-11T10:14:05;100572.50;;;-3.72;61.67
80837;BME280;70251;60.008;30.404;2024-01-11T10:16:30;100569.00;;;-3.71;62.04
80837;BME280;70251;60.008;30.404;2024-01-11T10:18:57;100580.97;;;-3.64;62.31
80837;BME280;70251;60.008;30.404;2024-01-11T10:21:23;100587.34;;;-3.74;62.13
80837;BME280;70251;60.008;30.404;2024-01-11T10:23:50;100580.84;;;-3.89;62.95
80837;BME280;70251;60.008;30.404;2024-01-11T10:26:16;100603.03;;;-4.04;63.27
80837;BME280;70251;60.008;30.404;2024-01-11T10:28:44;100587.25;;;-4.27;65.09
80837;BME280;70251;60.008;30.404;2024-01-11T10:31:10;100616.25;;;-4.10;65.32
80837;BME280;70251;60.008;30.404;2024-01-11T10:33:36;100600.00;;;-4.18;66.97
80837;BME280;70251;60.008;30.404;2024-01-11T10:36:03;100607.69;;;-4.15;66.07
80837;BME280;70251;60.008;30.404;2024-01-11T10:38:35;100612.56;;;-4.03;66.73
80837;BME280;70251;60.008;30.404;2024-01-11T10:41:04;100617.97;;;-4.10;67.32
80837;BME280;70251;60.008;30.404;2024-01-11T10:43:31;100622.06;;;-4.02;67.19
80837;BME280;70251;60.008;30.404;2024-01-11T10:46:00;100616.47;;;-3.89;66.96
80837;BME280;70251;60.008;30.404;2024-01-11T10:48:38;100623.97;;;-3.79;66.86
80837;BME280;70251;60.008;30.404;2024-01-11T10:51:12;100632.91;;;-3.87;66.95
80837;BME280;70251;60.008;30.404;2024-01-11T10:53:48;100645.06;;;-3.86;67.50
80837;BME280;70251;60.008;30.404;2024-01-11T10:56:16;100638.41;;;-3.97;67.82
80837;BME280;70251;60.008;30.404;2024-01-11T10:58:43;100635.59;;;-4.18;67.87
80837;BME280;70251;60.008;30.404;2024-01-11T11:01:11;100638.69;;;-4.06;68.08
80837;BME280;70251;60.008;30.404;2024-01-11T11:03:37;100648.09;;;-4.02;68.11
80837;BME280;70251;60.008;30.404;2024-01-11T11:06:07;100657.19;;;-4.15;68.58
80837;BME280;70251;60.008;30.404;2024-01-11T11:08:33;100658.59;;;-4.03;68.31
80837;BME280;70251;60.008;30.404;2024-01-11T11:11:03;100650.63;;;-3.99;68.60
80837;BME280;70251;60.008;30.404;2024-01-11T11:13:31;100663.59;;;-3.97;68.69
80837;BME280;70251;60.008;30.404;2024-01-11T11:15:57;100670.44;;;-4.24;68.98
80837;BME280;70251;60.008;30.404;2024-01-11T11:18:26;100670.50;;;-4.25;69.41
80837;BME280;70251;60.008;30.404;2024-01-11T11:20:51;100667.66;;;-4.16;68.92
80837;BME280;70251;60.008;30.404;2024-01-11T11:23:18;100681.59;;;-4.19;69.34
80837;BME280;70251;60.008;30.404;2024-01-11T11:25:47;100681.53;;;-4.16;69.56
80837;BME280;70251;60.008;30.404;2024-01-11T11:28:15;100681.34;;;-4.10;69.40
80837;BME280;70251;60.008;30.404;2024-01-11T11:30:42;100703.03;;;-4.09;69.15
80837;BME280;70251;60.008;30.404;2024-01-11T11:33:17;100701.13;;;-4.04;68.85
80837;BME280;70251;60.008;30.404;2024-01-11T11:35:45;100705.66;;;-4.09;69.21
80837;BME280;70251;60.008;30.404;2024-01-11T11:38:22;100702.06;;;-4.05;69.37
80837;BME280;70251;60.008;30.404;2024-01-11T11:40:48;100722.88;;;-4.05;69.68
80837;BME280;70251;60.008;30.404;2024-01-11T11:43:17;100718.63;;;-4.08;69.37
80837;BME280;70251;60.008;30.404;2024-01-11T11:45:47;100714.78;;;-3.95;69.39
80837;BME280;70251;60.008;30.404;2024-01-11T11:51:10;100732.94;;;-3.93;69.76
80837;BME280;70251;60.008;30.404;2024-01-11T11:53:37;100740.84;;;-3.96;69.70
80837;BME280;70251;60.008;30.404;2024-01-11T11:56:04;100748.03;;;-4.04;70.08
80837;BME280;70251;60.008;30.404;2024-01-11T11:58:31;100752.91;;;-3.92;69.19
80837;BME280;70251;60.008;30.404;2024-01-11T12:01:01;100750.13;;;-3.87;69.36
80837;BME280;70251;60.008;30.404;2024-01-11T12:03:34;100749.00;;;-3.77;69.42
80837;BME280;70251;60.008;30.404;2024-01-11T12:06:04;100763.09;;;-3.84;69.16
80837;BME280;70251;60.008;30.404;2024-01-11T12:08:31;100772.53;;;-3.80;69.12
80837;BME280;70251;60.008;30.404;2024-01-11T12:10:57;100772.16;;;-3.67;68.94
80837;BME280;70251;60.008;30.404;2024-01-11T12:13:23;100784.19;;;-3.63;68.99
80837;BME280;70251;60.008;30.404;2024-01-11T12:15:49;100782.34;;;-3.59;68.64
80837;BME280;70251;60.008;30.404;2024-01-11T12:18:15;100788.03;;;-3.47;68.97
80837;BME280;70251;60.008;30.404;2024-01-11T12:20:41;100802.53;;;-3.37;69.11
80837;BME280;70251;60.008;30.404;2024-01-11T12:23:06;100791.78;;;-3.26;68.89
80837;BME280;70251;60.008;30.404;2024-01-11T12:25:32;100788.06;;;-3.19;68.22
80837;BME280;70251;60.008;30.404;2024-01-11T12:27:58;100800.50;;;-2.99;68.28
80837;BME280;70251;60.008;30.404;2024-01-11T12:30:25;100806.28;;;-2.90;68.33
80837;BME280;70251;60.008;30.404;2024-01-11T12:32:53;100821.75;;;-2.84;67.74
80837;BME280;70251;60.008;30.404;2024-01-11T12:35:19;100834.53;;;-2.76;67.47
80837;BME280;70251;60.008;30.404;2024-01-11T12:38:01;100818.41;;;-2.89;67.35
80837;BME280;70251;60.008;30.404;2024-01-11T12:40:32;100834.19;;;-2.92;67.80
80837;BME280;70251;60.008;30.404;2024-01-11T12:42:59;100840.28;;;-2.93;67.22
80837;BME280;70251;60.008;30.404;2024-01-11T12:45:25;100838.50;;;-2.91;67.47
80837;BME280;70251;60.008;30.404;2024-01-11T12:47:56;100835.03;;;-2.91;66.94
80837;BME280;70251;60.008;30.404;2024-01-11T12:50:25;100836.88;;;-2.95;66.98